Time;durP1;ratioP1;P1;durP2;ratioP2;P2;SDS_P1;SDS_P2;PMS_P1;PMS_P2;Temp;Humidity;BMP_temperature;BMP_pressure;BME280_temperature;BME280_humidity;BME280_pressure;Samples;Min_cycle;Max_cycle;Signal;HPM_P1;HPM_P2
2022/01/19 00:00:15;;;;;;;37.63;27.27;;;25.00;99.90;;;;;;5110774;28;20051;-70
2022/01/19 00:02:42;;;;;;;34.75;24.17;;;25.00;99.90;;;;;;5111970;28;20031;-70
2022/01/19 00:05:11;;;;;;;40.55;25.67;;;25.00;99.90;;;;;;5110748;28;20073;-70
2022/01/19 00:07:39;;;;;;;38.75;24.30;;;25.00;99.90;;;;;;5119887;28;20070;-70
2022/01/19 00:10:11;;;;;;;32.85;22.95;;;25.10;99.90;;;;;;5130631;27;20051;-71
2022/01/19 00:12:38;;;;;;;49.22;24.65;;;25.00;99.90;;;;;;5130733;27;20272;-71
2022/01/19 00:15:07;;;;;;;41.67;24.17;;;25.10;99.90;;;;;;5131256;27;20480;-72
2022/01/19 00:17:34;;;;;;;38.17;24.92;;;25.10;99.90;;;;;;5125683;27;20055;-72
2022/01/19 00:20:01;;;;;;;37.50;24.77;;;25.10;99.90;;;;;;5122215;27;20023;-71
2022/01/19 00:22:28;;;;;;;41.17;24.55;;;25.10;99.90;;;;;;5119094;28;20058;-71
2022/01/19 00:24:54;;;;;;;72.60;46.03;;;25.10;99.90;;;;;;5110051;28;20568;-73
2022/01/19 00:27:21;;;;;;;47.50;32.67;;;25.10;99.90;;;;;;5109799;28;20600;-71
2022/01/19 00:29:48;;;;;;;37.70;27.00;;;25.10;99.90;;;;;;5096349;28;20047;-69
2022/01/19 00:32:14;;;;;;;59.78;39.17;;;25.10;99.90;;;;;;5098406;28;20086;-72
2022/01/19 00:34:41;;;;;;;35.80;25.92;;;25.20;99.90;;;;;;5116108;28;20023;-71
2022/01/19 00:37:07;;;;;;;36.55;25.70;;;25.20;99.90;;;;;;5116721;28;20024;-73
2022/01/19 00:39:34;;;;;;;33.88;24.90;;;25.20;99.90;;;;;;5116374;28;20016;-70
2022/01/19 00:42:01;;;;;;;116.03;76.18;;;25.20;99.90;;;;;;5117323;28;20103;-73
2022/01/19 00:44:28;;;;;;;105.85;75.63;;;25.10;99.90;;;;;;5116098;28;20023;-71
2022/01/19 00:46:54;;;;;;;35.75;27.08;;;25.20;99.90;;;;;;5116910;28;20092;-70
2022/01/19 00:49:21;;;;;;;43.00;29.17;;;25.20;99.90;;;;;;5116305;28;20349;-72
2022/01/19 00:51:48;;;;;;;39.28;27.33;;;25.20;99.90;;;;;;5114841;28;20028;-74
2022/01/19 00:54:15;;;;;;;35.53;25.50;;;25.20;99.90;;;;;;5112999;28;20058;-72
2022/01/19 00:56:42;;;;;;;42.90;27.75;;;25.20;99.90;;;;;;5115567;28;20019;-70
2022/01/19 00:59:08;;;;;;;31.90;24.88;;;25.30;99.90;;;;;;5115995;28;20027;-71
2022/01/19 01:01:35;;;;;;;35.92;21.60;;;25.20;99.90;;;;;;5115771;28;20039;-72
2022/01/19 01:04:09;;;;;;;38.45;24.90;;;25.30;99.90;;;;;;5111209;28;20464;-73
2022/01/19 01:06:36;;;;;;;34.78;23.27;;;25.40;99.90;;;;;;5105873;28;20115;-72
2022/01/19 01:09:03;;;;;;;36.60;23.92;;;25.40;99.90;;;;;;5097455;28;20043;-72
2022/01/19 01:11:35;;;;;;;35.40;23.17;;;25.30;99.90;;;;;;5116003;28;20042;-72
2022/01/19 01:16:35;;;;;;;32.58;23.48;;;25.40;99.90;;;;;;5115880;28;20459;-75
2022/01/19 01:19:07;;;;;;;31.85;24.48;;;25.40;99.90;;;;;;5116243;28;20030;-71
2022/01/19 01:21:34;;;;;;;30.73;23.45;;;25.40;99.90;;;;;;5116391;28;20020;-72
2022/01/19 01:24:02;;;;;;;61.38;43.85;;;25.40;99.90;;;;;;5115679;28;20024;-74
2022/01/19 01:26:29;;;;;;;35.55;27.33;;;25.40;99.90;;;;;;5112863;28;20380;-72
2022/01/19 01:28:56;;;;;;;25.35;20.15;;;25.40;99.90;;;;;;5115268;27;20046;-72
2022/01/19 01:31:23;;;;;;;34.45;20.98;;;25.50;99.90;;;;;;5115354;28;20039;-71
2022/01/19 01:33:49;;;;;;;30.05;21.55;;;25.60;99.90;;;;;;5115661;28;20098;-73
2022/01/19 01:36:16;;;;;;;24.00;19.50;;;25.70;99.90;;;;;;5109231;28;20502;-72
2022/01/19 01:38:43;;;;;;;24.05;18.30;;;25.80;99.90;;;;;;5112441;28;20027;-73
2022/01/19 01:41:14;;;;;;;22.85;16.08;;;26.00;99.90;;;;;;5114484;28;20108;-78
2022/01/19 01:43:45;;;;;;;28.40;17.30;;;26.20;99.90;;;;;;5114052;28;20019;-72
2022/01/19 02:06:38;;;;;;;20.73;15.65;;;26.10;99.90;;;;;;5068106;27;2662609;-74
2022/01/19 02:09:13;;;;;;;20.48;14.80;;;26.80;99.90;;;;;;5139613;27;20051;-73
2022/01/19 02:22:31;;;;;;;15.82;13.18;;;26.80;99.90;;;;;;5146247;27;20011;-74
2022/01/19 02:24:58;;;;;;;20.00;14.23;;;26.70;99.90;;;;;;5146693;27;20035;-74
2022/01/19 02:40:38;;;;;;;27.58;17.50;;;26.60;99.90;;;;;;5143984;27;20397;-73
2022/01/19 02:43:10;;;;;;;26.20;17.67;;;26.60;99.90;;;;;;5146167;27;20022;-68
2022/01/19 02:50:40;;;;;;;31.60;17.63;;;26.70;99.90;;;;;;5147908;27;20034;-70
2022/01/19 02:53:07;;;;;;;31.55;17.40;;;26.70;99.90;;;;;;5145129;27;20134;-70
2022/01/19 02:55:36;;;;;;;31.77;21.60;;;26.80;99.90;;;;;;5137658;27;20092;-69
2022/01/19 02:58:03;;;;;;;42.70;25.77;;;26.90;99.90;;;;;;5112680;28;20057;-76
2022/01/19 03:11:03;;;;;;;21.42;14.75;;;26.60;99.90;;;;;;5126245;27;20027;-75
2022/01/19 03:13:30;;;;;;;28.25;16.23;;;26.50;99.90;;;;;;5119138;27;20019;-75
2022/01/19 03:15:57;;;;;;;26.38;17.08;;;26.50;99.90;;;;;;5101131;27;20030;-74
2022/01/19 03:18:24;;;;;;;40.70;21.50;;;26.50;99.90;;;;;;5107464;27;20493;-78
2022/01/19 03:20:51;;;;;;;32.08;18.70;;;26.60;99.90;;;;;;5112146;27;20083;-73
2022/01/19 03:23:21;;;;;;;32.38;21.52;;;26.60;99.90;;;;;;5119332;27;20181;-74
2022/01/19 03:25:53;;;;;;;34.70;20.67;;;26.60;99.90;;;;;;5118295;27;20023;-74
2022/01/19 03:28:20;;;;;;;36.88;22.60;;;26.60;99.90;;;;;;5103673;27;20031;-74
2022/01/19 03:30:48;;;;;;;29.25;16.23;;;26.60;99.90;;;;;;5115256;27;20023;-77
2022/01/19 03:33:15;;;;;;;24.88;17.63;;;26.60;99.90;;;;;;5107495;27;20477;-73
2022/01/19 03:35:43;;;;;;;46.85;32.53;;;26.60;99.90;;;;;;5123416;27;20483;-73
2022/01/19 03:38:12;;;;;;;174.60;106.05;;;26.60;99.90;;;;;;5108854;27;20026;-77
2022/01/19 03:40:40;;;;;;;38.28;22.98;;;26.60;99.90;;;;;;5107631;28;20024;-75
2022/01/19 03:43:06;;;;;;;24.60;16.42;;;26.60;99.90;;;;;;5097260;28;20426;-73
2022/01/19 03:45:34;;;;;;;36.90;20.52;;;26.50;99.90;;;;;;5102675;28;20027;-75
2022/01/19 03:50:41;;;;;;;29.45;19.05;;;26.50;99.90;;;;;;5109214;28;20519;-74
2022/01/19 03:53:08;;;;;;;34.60;19.65;;;26.50;99.90;;;;;;5107930;28;20110;-74
2022/01/19 03:55:34;;;;;;;26.77;18.92;;;26.50;99.90;;;;;;5100303;28;20078;-75
2022/01/19 03:58:01;;;;;;;24.25;17.50;;;26.50;99.90;;;;;;5105941;28;20024;-76
2022/01/19 04:00:28;;;;;;;27.52;18.48;;;26.40;99.90;;;;;;5107581;28;20027;-71
2022/01/19 04:02:55;;;;;;;26.77;18.77;;;26.40;99.90;;;;;;5104338;27;20024;-75
2022/01/19 04:05:38;;;;;;;24.35;17.10;;;26.40;99.90;;;;;;5118900;27;20047;-77
2022/01/19 04:08:05;;;;;;;25.23;17.60;;;26.30;99.90;;;;;;5109729;28;20388;-71
2022/01/19 04:10:32;;;;;;;25.83;18.45;;;26.30;99.90;;;;;;5103735;28;20024;-74
2022/01/19 04:13:10;;;;;;;34.80;23.52;;;26.20;99.90;;;;;;5097418;28;20028;-74
2022/01/19 04:15:37;;;;;;;28.00;20.73;;;26.20;99.90;;;;;;5106238;28;20481;-73
2022/01/19 04:18:05;;;;;;;30.23;22.55;;;26.30;99.90;;;;;;5096076;28;20051;-73
2022/01/19 04:20:40;;;;;;;32.63;22.15;;;26.40;99.90;;;;;;5097354;28;20027;-72
2022/01/19 04:23:07;;;;;;;31.63;18.77;;;26.50;99.90;;;;;;5105539;27;20060;-72
2022/01/19 04:25:34;;;;;;;32.88;20.58;;;26.50;99.90;;;;;;5117864;27;20384;-71
2022/01/19 04:28:07;;;;;;;29.83;19.70;;;26.50;99.90;;;;;;5121628;27;20043;-75
2022/01/19 04:30:34;;;;;;;36.40;21.88;;;26.50;99.90;;;;;;5117689;27;20063;-72
2022/01/19 04:33:07;;;;;;;34.60;24.55;;;26.60;99.90;;;;;;5124608;27;20380;-72
2022/01/19 04:35:44;;;;;;;31.42;19.17;;;26.60;99.90;;;;;;5098187;27;20035;-72
2022/01/19 05:04:33;;;;;;;33.30;19.75;;;26.60;99.90;;;;;;5096686;28;20028;-72
2022/01/19 05:07:11;;;;;;;27.48;19.92;;;26.60;99.90;;;;;;5112641;28;20129;-71
2022/01/19 05:09:57;;;;;;;28.98;22.10;;;26.60;99.90;;;;;;5107000;28;20049;-72
2022/01/19 05:15:05;;;;;;;33.80;20.15;;;26.70;99.90;;;;;;5101485;28;20107;-69
2022/01/19 05:17:33;;;;;;;28.23;18.83;;;26.80;99.90;;;;;;5110080;27;20031;-73
2022/01/19 05:19:59;;;;;;;37.17;24.92;;;26.80;99.90;;;;;;5111147;27;20035;-73
2022/01/19 05:22:26;;;;;;;34.58;21.15;;;26.90;99.90;;;;;;5121365;27;20015;-73
2022/01/19 05:24:53;;;;;;;36.47;22.83;;;26.90;99.90;;;;;;5117356;27;20104;-72
2022/01/19 05:27:21;;;;;;;27.60;21.15;;;27.00;99.90;;;;;;5123149;27;20031;-72
2022/01/19 05:29:49;;;;;;;28.88;22.48;;;27.00;99.90;;;;;;5122022;27;20039;-73
2022/01/19 05:32:16;;;;;;;27.80;21.15;;;27.00;99.90;;;;;;5134464;27;20075;-74
2022/01/19 05:34:43;;;;;;;31.48;22.15;;;27.10;99.90;;;;;;5105700;28;20030;-72
2022/01/19 05:37:10;;;;;;;27.60;20.38;;;27.10;99.90;;;;;;5093243;28;20032;-72
2022/01/19 05:39:37;;;;;;;34.78;20.13;;;27.20;99.90;;;;;;5108075;28;20024;-72
2022/01/19 05:42:04;;;;;;;25.20;21.02;;;27.20;99.90;;;;;;5094477;28;20043;-73
2022/01/19 05:44:30;;;;;;;37.03;21.23;;;27.30;99.90;;;;;;5093419;28;20493;-74
2022/01/19 05:46:57;;;;;;;37.50;19.98;;;27.30;99.90;;;;;;5109856;28;20039;-74
2022/01/19 05:49:24;;;;;;;23.95;18.63;;;27.50;99.90;;;;;;5122801;27;20473;-73
2022/01/19 05:51:51;;;;;;;34.60;20.02;;;27.60;99.90;;;;;;5123773;28;20015;-73
2022/01/19 05:54:20;;;;;;;35.13;21.13;;;27.60;99.90;;;;;;5100278;28;20027;-71
2022/01/19 05:56:46;;;;;;;33.03;20.42;;;27.70;99.90;;;;;;5101247;28;20023;-70
2022/01/19 05:59:13;;;;;;;28.95;19.73;;;27.80;99.90;;;;;;5094829;28;20028;-71
2022/01/19 06:01:40;;;;;;;30.25;19.48;;;27.90;99.90;;;;;;5103480;28;20500;-71
2022/01/19 06:04:07;;;;;;;27.33;18.88;;;27.90;99.90;;;;;;5120227;28;20476;-74
2022/01/19 06:06:34;;;;;;;31.77;21.15;;;27.80;99.90;;;;;;5132031;28;20100;-74
2022/01/19 06:09:03;;;;;;;33.83;19.40;;;27.90;99.90;;;;;;5109641;28;20488;-73
2022/01/19 06:11:30;;;;;;;35.85;21.88;;;27.90;99.90;;;;;;5103146;28;20034;-73
2022/01/19 06:13:57;;;;;;;26.17;20.60;;;27.80;99.90;;;;;;5121892;28;20055;-72
2022/01/19 06:16:23;;;;;;;41.30;22.92;;;27.90;99.90;;;;;;5123770;28;20489;-70
2022/01/19 06:18:50;;;;;;;31.80;23.45;;;28.00;99.90;;;;;;5122446;28;20107;-71
2022/01/19 06:21:17;;;;;;;34.30;23.73;;;28.00;99.90;;;;;;5132032;28;20019;-71
2022/01/19 06:23:44;;;;;;;34.40;23.20;;;28.00;99.90;;;;;;5134311;28;20016;-70
2022/01/19 06:26:11;;;;;;;38.10;22.83;;;28.00;99.90;;;;;;5127179;28;20020;-73
2022/01/19 06:28:37;;;;;;;37.25;23.02;;;28.10;99.90;;;;;;5114493;28;20062;-68
2022/01/19 06:31:06;;;;;;;29.73;21.75;;;28.20;99.90;;;;;;5120523;28;20404;-70
2022/01/19 06:33:33;;;;;;;35.42;21.25;;;28.30;99.90;;;;;;5123895;28;20080;-70
2022/01/19 06:35:59;;;;;;;37.60;21.65;;;28.40;99.90;;;;;;5123803;28;20026;-70
2022/01/19 06:38:26;;;;;;;27.45;20.77;;;28.40;99.90;;;;;;5122232;28;20046;-68
2022/01/19 06:40:53;;;;;;;31.48;20.20;;;28.40;99.90;;;;;;5124027;27;20095;-69
2022/01/19 06:43:19;;;;;;;23.40;19.88;;;28.30;99.90;;;;;;5125439;27;20024;-68
2022/01/19 06:45:46;;;;;;;29.60;19.52;;;28.30;99.90;;;;;;5123111;27;20535;-67
2022/01/19 06:48:13;;;;;;;33.15;19.45;;;28.30;99.90;;;;;;5127676;27;20051;-68
2022/01/19 06:50:39;;;;;;;31.10;20.33;;;28.30;99.90;;;;;;5127651;27;20027;-68
2022/01/19 06:53:06;;;;;;;28.92;19.75;;;28.20;99.90;;;;;;5125833;27;20018;-69
2022/01/19 06:55:33;;;;;;;34.05;20.92;;;28.30;99.90;;;;;;5126783;27;20026;-68
2022/01/19 06:58:00;;;;;;;31.00;20.40;;;28.30;99.90;;;;;;5124190;27;20030;-68
2022/01/19 07:00:26;;;;;;;28.73;20.83;;;28.30;99.90;;;;;;5128202;27;20023;-69
2022/01/19 07:02:53;;;;;;;26.85;19.95;;;28.30;99.90;;;;;;5123407;27;20065;-69
2022/01/19 07:05:20;;;;;;;32.97;19.98;;;28.40;99.90;;;;;;5127637;27;20046;-69
2022/01/19 07:07:46;;;;;;;82.65;55.47;;;28.40;99.90;;;;;;5124848;27;20515;-71
2022/01/19 07:10:13;;;;;;;63.08;45.50;;;28.40;99.90;;;;;;5126407;27;20055;-70
2022/01/19 07:12:40;;;;;;;31.70;22.45;;;28.40;99.90;;;;;;5126275;27;20031;-69
2022/01/19 07:15:07;;;;;;;31.92;21.05;;;28.50;99.90;;;;;;5127444;27;20022;-69
2022/01/19 07:17:35;;;;;;;44.75;22.95;;;28.50;99.90;;;;;;5126379;27;20064;-69
2022/01/19 07:20:02;;;;;;;36.13;22.65;;;28.60;99.90;;;;;;5125418;27;20106;-69
2022/01/19 07:22:29;;;;;;;30.58;20.98;;;28.60;99.90;;;;;;5123469;27;20014;-70
2022/01/19 07:24:58;;;;;;;32.88;21.58;;;28.60;99.90;;;;;;5118732;27;20102;-68
2022/01/19 07:27:25;;;;;;;37.67;21.83;;;28.60;99.90;;;;;;5118237;27;20476;-69
2022/01/19 07:29:52;;;;;;;31.83;21.20;;;28.60;99.90;;;;;;5120536;27;20031;-70
2022/01/19 07:32:20;;;;;;;41.55;27.33;;;28.60;99.90;;;;;;5128250;27;20030;-68
2022/01/19 07:34:46;;;;;;;49.33;34.83;;;28.70;99.90;;;;;;5118818;27;20031;-70
2022/01/19 07:37:13;;;;;;;27.88;21.58;;;28.70;99.90;;;;;;5124631;27;20102;-71
2022/01/19 07:39:40;;;;;;;37.97;27.10;;;28.80;99.90;;;;;;5120943;27;20385;-69
2022/01/19 07:42:07;;;;;;;32.90;22.88;;;28.90;99.90;;;;;;5114407;27;20411;-70
2022/01/19 07:44:34;;;;;;;41.95;24.88;;;28.90;99.90;;;;;;5119887;27;20022;-71
2022/01/19 07:47:00;;;;;;;27.75;21.60;;;28.90;99.90;;;;;;5117210;27;20125;-73
2022/01/19 07:49:27;;;;;;;40.47;28.20;;;28.90;99.90;;;;;;5108597;27;20020;-70
2022/01/19 07:51:54;;;;;;;41.53;22.40;;;28.90;99.90;;;;;;5107895;28;20052;-69
2022/01/19 07:54:20;;;;;;;34.40;24.38;;;29.00;99.90;;;;;;5104263;28;20115;-71
2022/01/19 07:56:47;;;;;;;28.20;20.50;;;29.00;99.90;;;;;;5098810;28;20016;-75
2022/01/19 07:59:15;;;;;;;33.17;21.15;;;29.10;99.90;;;;;;5100444;28;20288;-71
2022/01/19 08:01:42;;;;;;;25.58;16.42;;;29.20;99.90;;;;;;5112411;28;20076;-70
2022/01/19 08:04:09;;;;;;;27.65;16.67;;;29.30;99.90;;;;;;5110068;27;20024;-71
2022/01/19 08:06:36;;;;;;;21.15;16.70;;;29.50;99.90;;;;;;5111635;27;20036;-69
2022/01/19 08:09:04;;;;;;;43.60;32.08;;;29.50;99.90;;;;;;5118683;27;20032;-70
2022/01/19 08:11:31;;;;;;;28.02;20.13;;;29.50;99.90;;;;;;5117390;27;20381;-76
2022/01/19 08:13:58;;;;;;;30.70;17.98;;;29.60;99.90;;;;;;5119236;27;20028;-70
2022/01/19 08:16:25;;;;;;;28.50;20.27;;;29.50;99.90;;;;;;5109672;27;20027;-71
2022/01/19 08:18:51;;;;;;;34.30;21.73;;;29.50;99.90;;;;;;5126072;27;20033;-71
2022/01/19 08:21:18;;;;;;;60.53;44.80;;;29.50;99.90;;;;;;5117642;27;20023;-72
2022/01/19 08:23:45;;;;;;;32.65;21.60;;;29.60;99.90;;;;;;5111907;27;20056;-69
2022/01/19 08:26:13;;;;;;;35.47;23.48;;;29.60;99.90;;;;;;5118835;27;20032;-71
2022/01/19 08:28:39;;;;;;;58.67;42.88;;;29.60;99.90;;;;;;5123670;27;20030;-73
2022/01/19 08:31:06;;;;;;;46.67;31.42;;;29.50;99.90;;;;;;5132240;27;20425;-74
2022/01/19 08:33:33;;;;;;;47.22;29.25;;;29.40;99.90;;;;;;5131381;27;20011;-73
2022/01/19 08:36:00;;;;;;;39.30;29.17;;;29.50;99.90;;;;;;5128736;27;20024;-74
2022/01/19 08:38:26;;;;;;;31.13;22.00;;;29.50;99.90;;;;;;5113451;28;20035;-71
2022/01/19 08:40:53;;;;;;;30.77;19.35;;;29.50;99.90;;;;;;5102267;27;20027;-72
2022/01/19 08:43:20;;;;;;;31.33;20.15;;;29.40;99.90;;;;;;5122081;27;20411;-72
2022/01/19 08:45:47;;;;;;;29.20;20.30;;;29.40;99.90;;;;;;5115129;28;20023;-73
2022/01/19 08:48:13;;;;;;;26.08;20.58;;;29.40;99.90;;;;;;5099746;28;20485;-74
2022/01/19 08:50:40;;;;;;;35.17;20.55;;;29.40;99.90;;;;;;5095834;28;20020;-72
2022/01/19 08:53:07;;;;;;;29.15;20.80;;;29.40;99.90;;;;;;5118285;27;20097;-73
2022/01/19 08:55:33;;;;;;;37.28;21.42;;;29.30;99.90;;;;;;5113095;27;20259;-73
2022/01/19 08:58:00;;;;;;;35.53;22.25;;;29.30;99.90;;;;;;5096632;28;20024;-70
2022/01/19 09:00:27;;;;;;;36.60;24.35;;;29.30;99.90;;;;;;5101414;28;20031;-73
2022/01/19 09:02:54;;;;;;;26.23;21.58;;;29.40;99.90;;;;;;5094155;28;20049;-73
2022/01/19 09:05:20;;;;;;;33.20;24.00;;;29.40;99.90;;;;;;5094513;28;20119;-69
2022/01/19 09:07:47;;;;;;;40.08;27.15;;;29.20;99.90;;;;;;5103738;28;20077;-71
2022/01/19 09:10:15;;;;;;;47.42;32.15;;;29.20;99.90;;;;;;5103126;28;20019;-72
2022/01/19 09:12:43;;;;;;;39.55;30.23;;;29.10;99.90;;;;;;5109715;28;20081;-71
2022/01/19 09:15:12;;;;;;;45.38;30.85;;;29.00;99.90;;;;;;5107460;28;20023;-73
2022/01/19 09:17:41;;;;;;;39.88;30.73;;;28.90;99.90;;;;;;5098533;28;20027;-72
2022/01/19 09:20:10;;;;;;;39.25;27.13;;;28.70;99.90;;;;;;5104546;28;20101;-72
2022/01/19 09:22:36;;;;;;;37.22;28.63;;;28.50;99.90;;;;;;5105828;28;20023;-69
2022/01/19 09:25:06;;;;;;;43.40;31.17;;;28.40;99.90;;;;;;5104427;28;20020;-71
2022/01/19 09:27:33;;;;;;;36.58;29.30;;;28.20;99.90;;;;;;5109241;28;20492;-71
2022/01/19 09:30:00;;;;;;;36.63;28.38;;;28.20;99.90;;;;;;5103471;28;20074;-72
2022/01/19 09:32:28;;;;;;;68.07;47.08;;;28.00;99.90;;;;;;5104091;28;20382;-71
2022/01/19 09:34:58;;;;;;;108.82;82.82;;;27.80;99.90;;;;;;5094486;28;20129;-70
2022/01/19 09:37:24;;;;;;;41.80;34.42;;;27.70;99.90;;;;;;5103474;28;20457;-69
2022/01/19 09:39:52;;;;;;;44.60;31.17;;;27.60;99.90;;;;;;5114729;28;20119;-69
2022/01/19 09:42:19;;;;;;;165.45;110.40;;;27.50;99.90;;;;;;5097370;28;20024;-69
2022/01/19 09:44:45;;;;;;;71.75;51.72;;;27.50;99.90;;;;;;5094373;28;20020;-73
2022/01/19 09:47:12;;;;;;;44.70;31.63;;;27.50;99.90;;;;;;5097274;28;20052;-70
2022/01/19 09:49:39;;;;;;;51.40;35.85;;;27.50;99.90;;;;;;5113796;28;20035;-73
2022/01/19 09:52:06;;;;;;;46.97;34.13;;;27.60;99.90;;;;;;5107427;28;20095;-73
2022/01/19 09:54:33;;;;;;;47.28;32.45;;;27.60;99.90;;;;;;5095076;28;20027;-72
2022/01/19 09:57:00;;;;;;;38.20;29.58;;;27.60;99.90;;;;;;5105441;28;20038;-74
2022/01/19 09:59:27;;;;;;;38.13;30.42;;;27.60;99.90;;;;;;5115086;28;20103;-74
2022/01/19 10:02:02;;;;;;;38.42;28.05;;;27.50;99.90;;;;;;5113160;28;20016;-71
2022/01/19 10:04:32;;;;;;;38.15;26.95;;;27.40;99.90;;;;;;5098046;28;20446;-73
2022/01/19 10:07:16;;;;;;;35.53;28.27;;;27.30;99.90;;;;;;5110829;28;20061;-73
2022/01/19 10:09:56;;;;;;;35.80;28.80;;;27.40;99.90;;;;;;5096432;28;20023;-71
2022/01/19 10:17:44;;;;;;;35.97;27.95;;;27.50;99.90;;;;;;5105691;28;20120;-73
2022/01/19 10:20:21;;;;;;;39.53;29.40;;;27.50;99.90;;;;;;5109104;27;20431;-72
2022/01/19 10:22:48;;;;;;;34.50;29.95;;;27.60;99.90;;;;;;5124961;27;20033;-70
2022/01/19 10:25:15;;;;;;;44.53;34.42;;;27.50;99.90;;;;;;5123445;27;20027;-71
2022/01/19 10:27:45;;;;;;;64.20;40.67;;;27.50;99.90;;;;;;5120347;27;20332;-73
2022/01/19 10:30:18;;;;;;;48.90;37.90;;;27.50;99.90;;;;;;5116602;27;20035;-73
2022/01/19 10:32:53;;;;;;;47.75;33.50;;;27.60;99.90;;;;;;5121858;27;20020;-72
2022/01/19 10:35:32;;;;;;;50.95;34.97;;;27.60;99.90;;;;;;5121662;27;20495;-73
2022/01/19 10:38:11;;;;;;;49.85;35.20;;;27.70;99.90;;;;;;5119635;27;20028;-78
2022/01/19 10:40:40;;;;;;;41.90;31.65;;;27.70;99.90;;;;;;5111266;27;20099;-73
2022/01/19 10:43:29;;;;;;;40.72;28.35;;;27.80;99.90;;;;;;5120851;27;20376;-72
2022/01/19 10:45:57;;;;;;;36.15;29.40;;;27.80;99.90;;;;;;5121544;27;20098;-72
2022/01/19 10:48:41;;;;;;;41.85;29.88;;;27.90;99.90;;;;;;5119890;27;20432;-71
2022/01/19 10:51:09;;;;;;;40.25;32.53;;;27.90;99.90;;;;;;5138699;22;20032;-70
2022/01/19 10:53:36;;;;;;;42.13;33.17;;;27.90;99.90;;;;;;5034014;28;20029;-72
2022/01/19 10:56:05;;;;;;;47.60;35.40;;;27.80;99.90;;;;;;5046178;28;20510;-73
2022/01/19 10:58:34;;;;;;;47.83;35.83;;;27.80;99.90;;;;;;5052377;28;20479;-70
2022/01/19 11:01:00;;;;;;;64.60;47.47;;;27.80;99.90;;;;;;5054563;28;20039;-70
2022/01/19 11:03:29;;;;;;;78.43;55.22;;;27.90;99.90;;;;;;5051371;28;20025;-72
2022/01/19 11:06:01;;;;;;;59.13;44.03;;;27.80;99.90;;;;;;5053012;28;20029;-73
2022/01/19 11:08:29;;;;;;;98.95;71.53;;;27.90;99.90;;;;;;5054667;28;20096;-72
2022/01/19 11:11:01;;;;;;;72.03;55.08;;;27.90;99.90;;;;;;5051101;28;20550;-74
2022/01/19 11:13:38;;;;;;;87.32;69.13;;;27.80;99.90;;;;;;5052294;28;20108;-73
2022/01/19 11:16:06;;;;;;;103.18;80.20;;;27.70;99.90;;;;;;5037209;28;20370;-74
2022/01/19 11:18:36;;;;;;;94.05;69.25;;;27.70;99.90;;;;;;5047149;28;20021;-74
2022/01/19 11:21:09;;;;;;;175.05;123.40;;;27.60;99.90;;;;;;5053790;28;20028;-74
2022/01/19 11:23:52;;;;;;;112.95;83.70;;;27.60;99.90;;;;;;5050726;28;20021;-73
2022/01/19 11:26:27;;;;;;;165.20;112.05;;;27.60;99.90;;;;;;5046989;28;20281;-71
2022/01/19 11:28:53;;;;;;;65.05;48.05;;;27.50;99.90;;;;;;5056239;28;20044;-71
2022/01/19 11:31:23;;;;;;;39.28;26.95;;;27.50;99.90;;;;;;5056241;28;20043;-69
2022/01/19 11:33:58;;;;;;;44.08;34.05;;;27.40;99.90;;;;;;5056176;28;20025;-69
2022/01/19 11:36:29;;;;;;;31.33;20.88;;;27.30;99.90;;;;;;5053290;28;20033;-71
2022/01/19 11:39:02;;;;;;;27.35;20.63;;;27.20;99.90;;;;;;5035675;28;20390;-70
2022/01/19 11:41:43;;;;;;;29.80;18.70;;;27.10;99.90;;;;;;5045135;28;20410;-69
2022/01/19 11:44:21;;;;;;;82.67;61.87;;;27.10;99.90;;;;;;5055230;28;20028;-73
2022/01/19 11:46:52;;;;;;;79.32;61.95;;;27.00;99.90;;;;;;5047381;28;20379;-70
2022/01/19 11:49:50;;;;;;;66.38;55.50;;;27.00;99.90;;;;;;5055411;28;20025;-69
2022/01/19 11:52:22;;;;;;;36.97;26.90;;;27.10;99.90;;;;;;5054371;28;20040;-70
2022/01/19 11:54:51;;;;;;;30.48;21.17;;;27.10;99.90;;;;;;5055600;28;20029;-70
2022/01/19 11:57:27;;;;;;;36.53;23.25;;;27.00;99.90;;;;;;5055427;28;20031;-71
2022/01/19 11:59:55;;;;;;;30.02;21.50;;;27.00;99.90;;;;;;5056543;28;20032;-70
2022/01/19 12:02:26;;;;;;;45.25;31.92;;;27.00;99.90;;;;;;5055531;28;20029;-70
2022/01/19 12:05:14;;;;;;;40.75;29.55;;;27.00;99.90;;;;;;5055182;28;20059;-69
2022/01/19 12:07:41;;;;;;;31.27;20.55;;;27.00;99.90;;;;;;5054896;28;20071;-69
2022/01/19 12:10:15;;;;;;;34.75;24.17;;;26.90;99.90;;;;;;5035441;28;20029;-70
2022/01/19 12:15:43;;;;;;;33.90;20.40;;;26.90;99.90;;;;;;5054694;28;20487;-69
2022/01/19 12:18:10;;;;;;;23.38;17.55;;;26.80;99.90;;;;;;5053980;28;20060;-72
2022/01/19 12:20:50;;;;;;;26.23;16.92;;;26.80;99.90;;;;;;5047470;28;20337;-70
2022/01/19 12:23:30;;;;;;;23.13;17.77;;;26.70;99.90;;;;;;5051219;28;20060;-70
2022/01/19 12:25:58;;;;;;;48.05;38.10;;;26.60;99.90;;;;;;5052168;28;20459;-71
2022/01/19 12:28:44;;;;;;;115.32;86.90;;;26.60;99.90;;;;;;5054977;28;20051;-70
2022/01/19 12:31:22;;;;;;;33.30;25.05;;;26.60;99.90;;;;;;5051062;28;20434;-70
2022/01/19 12:34:04;;;;;;;78.15;61.75;;;26.50;99.90;;;;;;5054422;28;20047;-67
2022/01/19 12:36:42;;;;;;;63.08;52.38;;;26.50;99.90;;;;;;5054424;28;20059;-70
2022/01/19 12:39:28;;;;;;;63.42;49.80;;;26.40;99.90;;;;;;5052459;28;20029;-68
2022/01/19 12:42:14;;;;;;;96.70;75.38;;;26.40;99.90;;;;;;5047853;28;20037;-71
2022/01/19 12:44:53;;;;;;;30.40;22.65;;;26.30;99.90;;;;;;5054317;28;20021;-69
2022/01/19 12:47:27;;;;;;;25.00;19.48;;;26.40;99.90;;;;;;5053792;28;20032;-70
2022/01/19 12:50:05;;;;;;;24.77;20.60;;;26.50;99.90;;;;;;5053742;28;20371;-71
2022/01/19 12:52:33;;;;;;;26.88;21.08;;;26.50;99.90;;;;;;5053909;28;20048;-69
2022/01/19 12:55:18;;;;;;;43.60;32.63;;;26.50;99.90;;;;;;5051389;28;20508;-70
2022/01/19 12:57:46;;;;;;;35.20;24.88;;;26.50;99.90;;;;;;5049230;28;20017;-72
2022/01/19 13:00:19;;;;;;;36.35;25.90;;;26.20;99.90;;;;;;5050525;28;20017;-68
2022/01/19 13:02:46;;;;;;;31.23;24.63;;;26.10;99.90;;;;;;5057565;28;20072;-72
2022/01/19 13:05:19;;;;;;;33.15;23.50;;;26.10;99.90;;;;;;5054797;28;20094;-72
2022/01/19 13:07:55;;;;;;;34.55;27.65;;;26.10;99.90;;;;;;5054347;28;20025;-71
2022/01/19 13:10:37;;;;;;;94.43;68.35;;;26.00;99.90;;;;;;5053681;28;20540;-68
2022/01/19 13:13:26;;;;;;;30.42;20.33;;;25.80;99.90;;;;;;5053449;28;20467;-71
2022/01/19 13:15:59;;;;;;;31.70;17.25;;;25.80;99.90;;;;;;5028062;28;20224;-71
2022/01/19 13:18:32;;;;;;;21.50;13.90;;;25.70;99.90;;;;;;5053350;28;20100;-70
2022/01/19 13:21:08;;;;;;;19.85;14.63;;;25.70;99.90;;;;;;5036034;28;20028;-72
2022/01/19 13:23:39;;;;;;;17.95;14.80;;;25.80;99.90;;;;;;5053048;28;20025;-72
2022/01/19 13:26:10;;;;;;;20.98;15.32;;;25.80;99.90;;;;;;5053177;28;20024;-71
2022/01/19 13:28:37;;;;;;;24.50;16.92;;;25.80;99.90;;;;;;5053997;28;20060;-72
2022/01/19 13:31:14;;;;;;;107.85;74.00;;;25.80;99.90;;;;;;5051107;28;20227;-70
2022/01/19 13:33:41;;;;;;;48.15;38.17;;;25.80;99.90;;;;;;5054522;28;20078;-71
2022/01/19 13:36:08;;;;;;;23.00;20.65;;;25.80;99.90;;;;;;5053464;28;20111;-71
2022/01/19 13:38:37;;;;;;;53.17;44.70;;;25.80;99.90;;;;;;5054053;28;20021;-71
2022/01/19 13:41:07;;;;;;;53.75;40.42;;;25.90;99.90;;;;;;5054416;28;20025;-72
2022/01/19 13:43:37;;;;;;;45.13;33.78;;;25.90;99.90;;;;;;5053865;28;20363;-72
2022/01/19 13:46:18;;;;;;;36.45;29.00;;;26.00;99.90;;;;;;5053772;28;20021;-73
2022/01/19 13:48:47;;;;;;;47.55;38.53;;;26.10;99.90;;;;;;5052916;28;20029;-73
2022/01/19 13:51:15;;;;;;;28.27;21.83;;;26.10;99.90;;;;;;5053039;28;20031;-72
2022/01/19 13:53:50;;;;;;;33.42;27.38;;;26.00;99.90;;;;;;5035568;28;20056;-73
2022/01/19 13:56:24;;;;;;;24.25;19.48;;;26.00;99.90;;;;;;5053520;28;20475;-69
2022/01/19 13:58:59;;;;;;;28.10;23.48;;;25.80;99.90;;;;;;5053708;28;20100;-71
2022/01/19 14:01:56;;;;;;;67.03;55.17;;;25.80;99.90;;;;;;5053638;28;20025;-71
2022/01/19 14:04:25;;;;;;;35.67;29.52;;;25.90;99.90;;;;;;5053293;28;20494;-70
2022/01/19 14:06:52;;;;;;;85.10;75.70;;;25.90;99.90;;;;;;5053054;28;20379;-71
2022/01/19 14:09:19;;;;;;;59.40;50.10;;;25.90;99.90;;;;;;5053712;28;20067;-71
2022/01/19 14:12:00;;;;;;;40.67;29.67;;;25.90;99.90;;;;;;5053444;28;20021;-73
2022/01/19 14:14:35;;;;;;;32.20;28.00;;;25.80;99.90;;;;;;5053123;28;20053;-73
2022/01/19 14:17:05;;;;;;;92.82;82.82;;;25.70;99.90;;;;;;5053046;28;20534;-71
2022/01/19 14:19:41;;;;;;;34.10;28.45;;;25.70;99.90;;;;;;5053057;28;20033;-71